createdAt,value
2019-01-04T00:00:56.062Z,89.10
2019-01-04T00:03:38.534Z,88.70
2019-01-04T00:06:20.835Z,88.90
2019-01-04T00:09:02.684Z,89.30
2019-01-04T00:11:44.844Z,89.70
2019-01-04T00:14:26.825Z,90.00
2019-01-04T00:17:08.925Z,90.00
2019-01-04T00:19:51.397Z,90.10
2019-01-04T00:22:33.810Z,90.10
2019-01-04T00:25:16.275Z,90.00
2019-01-04T00:27:58.163Z,90.20
2019-01-04T00:30:40.496Z,90.30
2019-01-04T00:33:22.934Z,90.50
2019-01-04T00:36:05.232Z,90.30
2019-01-04T00:38:47.225Z,90.20
2019-01-04T00:41:29.236Z,90.20
2019-01-04T00:44:11.358Z,90.30
2019-01-04T00:46:53.275Z,90.20
2019-01-04T00:49:35.183Z,90.30
2019-01-04T00:52:17.764Z,90.20
2019-01-04T00:54:59.633Z,90.10
2019-01-04T00:57:41.609Z,90.20
2019-01-04T01:00:23.351Z,90.20
2019-01-04T01:03:05.479Z,90.20
2019-01-04T01:05:48.083Z,90.10
2019-01-04T01:08:30.003Z,90.30
2019-01-04T01:11:12.290Z,90.20
2019-01-04T01:13:54.576Z,90.30
2019-01-04T01:16:36.859Z,90.30
2019-01-04T01:22:56.914Z,90.40
2019-01-04T01:26:05.525Z,90.30
2019-01-04T01:29:14.183Z,90.20
2019-01-04T01:32:23.065Z,89.90
2019-01-04T01:35:31.874Z,90.00
2019-01-04T01:38:40.610Z,90.00
2019-01-04T01:41:49.268Z,89.80
2019-01-04T01:44:58.020Z,89.80
2019-01-04T01:47:52.115Z,90.00
2019-01-04T01:50:34.151Z,89.60
2019-01-04T01:53:16.432Z,89.60
2019-01-04T01:55:58.211Z,89.40
2019-01-04T01:58:40.257Z,89.30
2019-01-04T02:01:22.240Z,89.30
2019-01-04T02:04:04.578Z,89.00
2019-01-04T02:06:46.709Z,89.30
2019-01-04T02:09:27.365Z,90.00
2019-01-04T02:18:26.163Z,89.50
2019-01-04T02:21:08.799Z,89.20
2019-01-04T02:23:50.940Z,89.20
2019-01-04T02:26:31.653Z,89.00
2019-01-04T02:29:21.463Z,89.20
2019-01-04T02:32:11.331Z,89.20
2019-01-04T02:35:01.037Z,89.20
2019-01-04T02:37:50.740Z,89.00
2019-01-04T02:40:59.883Z,89.10
2019-01-04T02:44:08.996Z,88.90
2019-01-04T02:50:27.062Z,88.60
2019-01-04T02:53:36.614Z,88.70
2019-01-04T02:59:35.637Z,88.70
2019-01-04T03:09:02.020Z,88.50
2019-01-04T03:21:42.135Z,88.40
2019-01-04T03:24:43.762Z,88.90
2019-01-04T03:27:26.010Z,88.90
2019-01-04T03:30:08.013Z,89.10
2019-01-04T03:32:49.760Z,89.30
2019-01-04T03:35:32.165Z,89.20
2019-01-04T03:38:14.584Z,89.10
2019-01-04T03:40:57.319Z,89.40
2019-01-04T03:43:39.330Z,89.10
2019-01-04T03:46:21.094Z,88.70
2019-01-04T03:49:02.955Z,88.90
2019-01-04T03:51:45.095Z,89.30
2019-01-04T03:54:27.436Z,89.00
2019-01-04T03:57:09.500Z,89.00
2019-01-04T03:59:51.759Z,89.10
2019-01-04T04:02:34.565Z,89.10
2019-01-04T04:05:16.785Z,88.90
2019-01-04T04:07:59.190Z,88.70
2019-01-04T04:10:41.817Z,89.00
2019-01-04T04:13:23.770Z,89.20
2019-01-04T04:16:05.549Z,90.00
2019-01-04T04:18:47.360Z,89.20
2019-01-04T04:21:29.265Z,89.60
2019-01-04T04:24:11.895Z,89.70
2019-01-04T04:26:54.087Z,89.80
2019-01-04T04:29:36.070Z,90.00
2019-01-04T04:32:18.747Z,89.80
2019-01-04T04:35:00.665Z,89.80
2019-01-04T04:37:43.389Z,89.90
2019-01-04T04:40:25.636Z,89.80
2019-01-04T04:43:07.913Z,89.80
2019-01-04T04:45:50.330Z,89.90
2019-01-04T04:48:32.319Z,90.00
2019-01-04T04:51:14.324Z,90.00
2019-01-04T04:53:56.235Z,90.10
2019-01-04T04:56:38.465Z,90.20
2019-01-04T04:59:20.346Z,90.20
2019-01-04T05:02:02.582Z,90.30
2019-01-04T05:04:44.534Z,90.30
2019-01-04T05:07:26.794Z,90.30
2019-01-04T05:10:08.904Z,90.30
2019-01-04T05:12:51.139Z,90.30
2019-01-04T05:15:33.670Z,90.20
2019-01-04T05:18:16.220Z,90.20
2019-01-04T05:20:58.490Z,90.50
2019-01-04T05:23:41.154Z,90.40
2019-01-04T05:26:23.586Z,90.60
2019-01-04T05:29:05.537Z,90.70
2019-01-04T05:31:47.281Z,90.70
2019-01-04T05:34:29.411Z,90.90
2019-01-04T05:37:11.418Z,90.80
2019-01-04T05:39:53.180Z,90.80
2019-01-04T05:42:35.295Z,90.80
2019-01-04T05:45:17.323Z,90.60
2019-01-04T05:47:59.601Z,90.60
2019-01-04T05:50:42.003Z,90.60
2019-01-04T05:53:24.749Z,90.70
2019-01-04T05:56:07.121Z,90.80
2019-01-04T05:58:49.383Z,90.90
2019-01-04T06:01:31.957Z,90.80
2019-01-04T06:04:14.141Z,90.80
2019-01-04T06:06:56.418Z,90.80
2019-01-04T06:09:39.022Z,90.90
2019-01-04T06:12:21.329Z,90.60
2019-01-04T06:15:03.674Z,90.70
2019-01-04T06:17:45.699Z,90.70
2019-01-04T06:20:28.173Z,90.80
2019-01-04T06:23:10.535Z,90.70
2019-01-04T06:25:52.293Z,90.80
2019-01-04T06:28:34.617Z,90.80
2019-01-04T06:31:16.515Z,90.80
2019-01-04T06:33:58.958Z,90.50
2019-01-04T06:36:40.705Z,90.60
2019-01-04T06:39:23.363Z,90.70
2019-01-04T06:42:05.412Z,90.60
2019-01-04T06:44:47.456Z,90.60
2019-01-04T06:47:29.593Z,90.70
2019-01-04T06:50:11.783Z,90.70
2019-01-04T06:52:54.194Z,90.70
2019-01-04T06:55:36.919Z,90.70
2019-01-04T06:58:19.268Z,90.90
2019-01-04T07:01:01.613Z,90.90
2019-01-04T07:03:43.825Z,91.00
2019-01-04T07:06:25.985Z,91.00
2019-01-04T07:09:08.068Z,91.00
2019-01-04T07:11:50.633Z,90.90
2019-01-04T07:14:33.089Z,90.90
2019-01-04T07:17:14.829Z,90.90
2019-01-04T07:19:57.495Z,91.10
2019-01-04T07:22:39.580Z,91.10
2019-01-04T07:25:22.247Z,91.30
2019-01-04T07:28:04.760Z,91.50
2019-01-04T07:30:47.263Z,91.70
2019-01-04T07:33:29.807Z,91.80
2019-01-04T07:36:11.743Z,92.00
2019-01-04T07:38:53.603Z,92.10
2019-01-04T07:41:36.309Z,92.00
2019-01-04T07:44:18.369Z,91.90
2019-01-04T07:47:00.161Z,92.00
2019-01-04T07:49:41.944Z,92.00
2019-01-04T07:52:23.880Z,92.00
2019-01-04T07:55:05.817Z,92.00
2019-01-04T07:57:51.368Z,92.00
2019-01-04T08:00:36.424Z,91.90
2019-01-04T08:03:20.582Z,92.20
2019-01-04T08:06:02.544Z,92.40
2019-01-04T08:08:44.478Z,92.40
2019-01-04T08:11:26.653Z,92.60
2019-01-04T08:14:09.443Z,92.70
2019-01-04T08:16:51.539Z,92.60
2019-01-04T08:19:34.450Z,92.80
2019-01-04T08:22:16.593Z,93.10
2019-01-04T08:24:58.566Z,93.30
2019-01-04T08:27:40.270Z,93.70
2019-01-04T08:30:22.850Z,93.80
2019-01-04T08:33:05.013Z,94.20
2019-01-04T08:35:47.380Z,94.10
2019-01-04T08:38:29.340Z,94.30
2019-01-04T08:41:12.350Z,94.20
2019-01-04T08:43:54.697Z,94.60
2019-01-04T08:46:37.009Z,94.40
2019-01-04T08:49:19.014Z,94.50
2019-01-04T08:52:01.157Z,94.40
2019-01-04T08:54:43.318Z,94.40
2019-01-04T08:57:25.347Z,94.20
2019-01-04T09:00:08.125Z,94.30
2019-01-04T09:02:50.607Z,94.30
2019-01-04T09:05:33.017Z,94.40
2019-01-04T09:08:15.331Z,94.30
2019-01-04T09:10:57.378Z,94.30
2019-01-04T09:13:40.131Z,94.40
2019-01-04T09:16:22.744Z,94.50
2019-01-04T09:19:04.846Z,94.60
2019-01-04T09:21:47.004Z,94.50
2019-01-04T09:24:28.920Z,94.50
2019-01-04T09:27:11.407Z,94.70
2019-01-04T09:29:53.543Z,94.80
2019-01-04T09:32:35.541Z,94.70
2019-01-04T09:35:18.003Z,94.80
2019-01-04T09:37:59.810Z,94.70
2019-01-04T09:40:41.864Z,94.60
2019-01-04T09:43:24.023Z,94.70
2019-01-04T09:46:06.138Z,94.60
2019-01-04T09:48:48.647Z,94.60
2019-01-04T09:51:30.598Z,94.70
2019-01-04T09:54:13.217Z,94.70
2019-01-04T09:56:55.344Z,94.70
2019-01-04T09:59:38.070Z,94.60
2019-01-04T10:02:20.453Z,94.50
2019-01-04T10:05:02.422Z,94.30
2019-01-04T10:07:44.344Z,94.50
2019-01-04T10:10:26.053Z,94.70
2019-01-04T10:13:07.963Z,94.60
2019-01-04T10:15:50.522Z,94.50
2019-01-04T10:18:32.842Z,94.40
2019-01-04T10:21:15.069Z,94.40
2019-01-04T10:23:57.705Z,94.50
2019-01-04T10:26:40.555Z,94.20
2019-01-04T10:29:23.416Z,94.10
2019-01-04T10:32:05.584Z,94.20
2019-01-04T10:34:47.821Z,94.30
2019-01-04T10:37:30.677Z,94.10
2019-01-04T10:40:12.635Z,94.10
2019-01-04T10:42:55.364Z,94.20
2019-01-04T10:45:37.375Z,94.40
2019-01-04T10:48:19.463Z,94.00
2019-01-04T10:51:01.562Z,93.80
2019-01-04T10:53:44.215Z,93.80
2019-01-04T10:56:26.672Z,93.80
2019-01-04T10:59:08.765Z,93.80
2019-01-04T11:01:51.067Z,94.00
2019-01-04T11:04:33.518Z,93.90
2019-01-04T11:07:15.906Z,94.10
2019-01-04T11:09:58.029Z,93.80
2019-01-04T11:12:39.994Z,93.80
2019-01-04T11:15:22.257Z,93.80
2019-01-04T11:18:09.868Z,93.80
2019-01-04T11:20:49.715Z,93.50
2019-01-04T11:23:32.243Z,93.70
2019-01-04T11:26:14.138Z,93.60
2019-01-04T11:28:55.936Z,93.50
2019-01-04T11:31:38.505Z,93.30
2019-01-04T11:34:20.995Z,93.30
2019-01-04T11:41:03.296Z,93.00
2019-01-04T11:44:31.395Z,92.80
2019-01-04T11:51:12.730Z,92.50
2019-01-04T12:00:31.545Z,92.70
2019-01-04T12:06:49.496Z,92.50
2019-01-04T12:13:28.247Z,91.80
2019-01-04T12:16:17.856Z,91.70
2019-01-04T12:19:26.887Z,91.60
2019-01-04T12:25:44.537Z,91.40
2019-01-04T12:28:26.296Z,91.60
2019-01-04T12:31:09.006Z,91.40
2019-01-04T12:33:51.027Z,91.30
2019-01-04T12:36:33.408Z,91.20
2019-01-04T12:39:16.413Z,91.10
2019-01-04T12:41:58.349Z,90.80
2019-01-04T12:44:41.177Z,90.70
2019-01-04T12:47:23.534Z,91.00
2019-01-04T12:50:05.425Z,90.90
2019-01-04T12:52:47.481Z,90.80
2019-01-04T12:55:29.424Z,91.10
2019-01-04T12:58:11.993Z,91.00
2019-01-04T13:00:54.373Z,91.00
2019-01-04T13:03:36.509Z,91.00
2019-01-04T13:06:18.721Z,90.90
2019-01-04T13:09:01.303Z,90.40
2019-01-04T13:11:43.466Z,90.30
2019-01-04T13:14:25.821Z,90.80
2019-01-04T13:17:08.165Z,90.70
2019-01-04T13:19:50.448Z,90.70
2019-01-04T13:22:32.398Z,90.80
2019-01-04T13:25:15.025Z,90.50
2019-01-04T13:27:57.086Z,90.60
2019-01-04T13:30:39.749Z,90.60
2019-01-04T13:33:22.853Z,90.40
2019-01-04T13:36:04.604Z,90.60
2019-01-04T13:38:46.856Z,90.40
2019-01-04T13:41:28.861Z,90.60
2019-01-04T13:44:11.446Z,90.80
2019-01-04T13:46:53.799Z,90.80
2019-01-04T13:49:35.993Z,90.80
2019-01-04T13:52:17.648Z,90.70
2019-01-04T13:54:59.749Z,90.70
2019-01-04T13:57:41.925Z,90.80
2019-01-04T14:00:23.969Z,90.90
2019-01-04T14:03:05.989Z,90.50
2019-01-04T14:05:48.905Z,90.50
2019-01-04T14:08:30.784Z,90.50
2019-01-04T14:11:13.376Z,90.60
2019-01-04T14:13:55.905Z,90.90
2019-01-04T14:16:38.296Z,90.70
2019-01-04T14:19:20.517Z,90.50
2019-01-04T14:22:02.313Z,90.60
2019-01-04T14:24:44.614Z,90.50
2019-01-04T14:27:26.779Z,90.50
2019-01-04T14:30:08.836Z,90.50
2019-01-04T14:32:51.570Z,90.50
2019-01-04T14:35:34.387Z,90.40
2019-01-04T14:38:17.139Z,90.50
2019-01-04T14:40:59.446Z,90.40
2019-01-04T14:43:42.408Z,90.60
2019-01-04T14:46:25.311Z,90.60
2019-01-04T14:49:08.726Z,90.50
2019-01-04T14:51:51.168Z,90.40
2019-01-04T14:54:33.671Z,90.10
2019-01-04T14:57:16.033Z,89.70
2019-01-04T14:59:58.461Z,89.90
2019-01-04T15:02:40.843Z,90.00
2019-01-04T15:05:22.915Z,90.30
2019-01-04T15:08:06.525Z,90.50
2019-01-04T15:10:48.564Z,90.40
2019-01-04T15:13:30.823Z,90.20
2019-01-04T15:16:12.923Z,90.40
2019-01-04T15:18:54.875Z,90.30
2019-01-04T15:21:36.684Z,90.50
2019-01-04T15:24:19.187Z,90.40
2019-01-04T15:27:01.473Z,90.40
2019-01-04T15:29:43.810Z,89.50
2019-01-04T15:32:25.678Z,88.90
2019-01-04T15:35:08.302Z,89.30
2019-01-04T15:37:50.778Z,88.60
2019-01-04T15:40:33.555Z,88.80
2019-01-04T15:43:15.394Z,89.00
2019-01-04T15:45:57.633Z,88.90
2019-01-04T15:48:39.740Z,88.60
2019-01-04T15:51:22.132Z,88.60
2019-01-04T15:54:03.914Z,88.90
2019-01-04T15:56:46.533Z,88.80
2019-01-04T15:59:29.085Z,88.30
2019-01-04T16:02:11.648Z,88.10
2019-01-04T16:04:53.473Z,88.50
2019-01-04T16:07:35.803Z,88.30
2019-01-04T16:10:18.019Z,88.90
2019-01-04T16:13:00.260Z,88.90
2019-01-04T16:15:42.367Z,89.00
2019-01-04T16:18:24.277Z,89.40
2019-01-04T16:21:06.300Z,89.40
2019-01-04T16:23:48.661Z,89.70
2019-01-04T16:26:31.368Z,89.40
2019-01-04T16:29:13.761Z,89.30
2019-01-04T16:31:55.648Z,89.20
2019-01-04T16:34:37.864Z,88.60
2019-01-04T16:37:19.898Z,88.50
2019-01-04T16:40:02.178Z,88.10
2019-01-04T16:42:44.482Z,87.60
2019-01-04T16:45:26.739Z,87.10
2019-01-04T16:48:09.257Z,86.80
2019-01-04T16:50:51.681Z,87.40
2019-01-04T16:53:33.615Z,87.40
2019-01-04T16:56:17.059Z,87.40
2019-01-04T16:58:59.187Z,87.60
2019-01-04T17:01:41.948Z,87.50
2019-01-04T17:04:24.153Z,87.50
2019-01-04T17:07:06.240Z,87.40
2019-01-04T17:09:49.261Z,87.50
2019-01-04T17:12:31.709Z,87.60
2019-01-04T17:15:14.527Z,87.80
2019-01-04T17:17:56.401Z,88.10
2019-01-04T17:20:38.707Z,88.00
2019-01-04T17:23:21.439Z,88.10
2019-01-04T17:26:04.046Z,88.10
2019-01-04T17:28:46.449Z,88.20
2019-01-04T17:31:29.049Z,87.90
2019-01-04T17:34:11.021Z,88.20
2019-01-04T17:36:53.757Z,87.30
2019-01-04T17:39:36.569Z,86.80
2019-01-04T17:42:19.052Z,85.70
2019-01-04T17:45:01.294Z,85.70
2019-01-04T17:47:43.391Z,86.20
2019-01-04T17:50:25.957Z,86.00
2019-01-04T17:53:08.334Z,86.20
2019-01-04T17:55:50.741Z,86.00
2019-01-04T17:58:33.128Z,86.00
2019-01-04T18:01:15.225Z,86.00
2019-01-04T18:03:57.719Z,85.70
2019-01-04T18:06:39.757Z,86.30
2019-01-04T18:09:21.951Z,86.50
2019-01-04T18:12:04.403Z,86.20
2019-01-04T18:14:47.214Z,86.30
2019-01-04T18:17:29.546Z,86.60
2019-01-04T18:20:13.984Z,86.20
2019-01-04T18:22:55.411Z,86.90
2019-01-04T18:25:37.649Z,86.90
2019-01-04T18:28:19.779Z,87.20
2019-01-04T18:31:02.257Z,87.30
2019-01-04T18:33:44.289Z,87.10
2019-01-04T18:36:26.407Z,86.30
2019-01-04T18:39:08.553Z,86.30
2019-01-04T18:41:50.347Z,85.50
2019-01-04T18:44:32.893Z,85.20
2019-01-04T18:47:15.557Z,85.80
2019-01-04T18:49:57.806Z,85.50
2019-01-04T18:52:40.368Z,85.20
2019-01-04T18:55:22.493Z,85.10
2019-01-04T18:58:04.913Z,85.70
2019-01-04T19:00:46.799Z,85.80
2019-01-04T19:03:29.316Z,85.90
2019-01-04T19:06:11.508Z,86.50
2019-01-04T19:08:53.578Z,87.10
2019-01-04T19:11:35.804Z,87.50
2019-01-04T19:14:17.569Z,87.50
2019-01-04T19:16:59.745Z,87.80
2019-01-04T19:19:41.531Z,88.40
2019-01-04T19:22:23.532Z,88.60
2019-01-04T19:25:05.296Z,88.80
2019-01-04T19:27:47.408Z,88.80
2019-01-04T19:30:29.906Z,88.30
2019-01-04T19:33:12.296Z,88.50
2019-01-04T19:35:54.567Z,88.60
2019-01-04T19:38:37.105Z,88.90
2019-01-04T19:41:19.143Z,89.10
2019-01-04T19:44:01.322Z,89.40
2019-01-04T19:46:44.020Z,88.50
2019-01-04T19:49:26.416Z,88.30
2019-01-04T19:52:08.912Z,88.40
2019-01-04T19:54:50.833Z,88.00
2019-01-04T19:57:33.738Z,88.50
2019-01-04T20:00:16.257Z,89.00
2019-01-04T20:02:58.107Z,89.40
2019-01-04T20:09:15.523Z,89.10
2019-01-04T20:12:17.463Z,89.30
2019-01-04T20:18:21.412Z,89.40
2019-01-04T20:21:47.703Z,89.80
2019-01-04T20:25:09.062Z,89.60
2019-01-04T20:28:09.922Z,89.40
2019-01-04T20:31:12.374Z,89.60
2019-01-04T20:34:15.022Z,89.40
2019-01-04T20:37:36.786Z,89.50
2019-01-04T20:43:42.148Z,89.80
2019-01-04T20:49:29.042Z,90.10
2019-01-04T20:52:31.041Z,90.10
2019-01-04T20:55:32.333Z,90.10
2019-01-04T20:58:58.233Z,90.40
2019-01-04T21:05:18.109Z,90.70
2019-01-04T21:08:21.851Z,91.00
2019-01-04T21:11:20.419Z,90.70
2019-01-04T21:14:42.527Z,90.90
2019-01-04T21:20:52.340Z,91.30
2019-01-04T21:23:53.299Z,91.40
2019-01-04T21:26:54.250Z,91.50
2019-01-04T21:29:55.344Z,91.70
2019-01-04T21:32:59.577Z,92.10
2019-01-04T21:36:20.467Z,92.30
2019-01-04T21:39:22.807Z,92.40
2019-01-04T21:42:23.748Z,92.80
2019-01-04T21:45:32.276Z,93.40
2019-01-04T21:49:00.211Z,93.30
2019-01-04T21:52:08.689Z,93.70
2019-01-04T21:55:17.193Z,93.80
2019-01-04T21:58:22.015Z,93.70
2019-01-04T22:01:26.096Z,93.70
2019-01-04T22:04:46.349Z,93.60
2019-01-04T22:07:47.070Z,93.60
2019-01-04T22:11:07.765Z,93.60
2019-01-04T22:14:31.437Z,93.60
2019-01-04T22:17:52.021Z,93.50
2019-01-04T22:20:58.761Z,93.60
2019-01-04T22:24:25.533Z,93.60
2019-01-04T22:27:46.097Z,93.50
2019-01-04T22:30:46.847Z,93.50
2019-01-04T22:33:50.656Z,93.30
2019-01-04T22:37:14.176Z,93.30
2019-01-04T22:40:37.121Z,93.60
2019-01-04T22:43:57.713Z,93.40
2019-01-04T22:47:17.774Z,93.40
2019-01-04T22:50:40.857Z,93.40
2019-01-04T22:53:41.877Z,93.50
2019-01-04T22:56:43.075Z,93.60
2019-01-04T22:59:43.728Z,94.00
2019-01-04T23:02:44.937Z,94.40
2019-01-04T23:05:46.187Z,94.70
2019-01-04T23:09:06.445Z,94.60
2019-01-04T23:12:07.706Z,94.70
2019-01-04T23:15:28.327Z,94.80
2019-01-04T23:18:52.400Z,94.60
2019-01-04T23:22:13.516Z,94.70
2019-01-04T23:25:17.593Z,94.60
2019-01-04T23:31:42.781Z,94.50
2019-01-04T23:34:44.268Z,94.60
2019-01-04T23:37:45.447Z,94.70
2019-01-04T23:40:52.530Z,95.10
2019-01-04T23:44:08.585Z,95.30
2019-01-04T23:47:32.477Z,95.40
2019-01-04T23:50:53.697Z,95.40
2019-01-04T23:56:59.115Z,95.40
